sensor_id;sensor_type;location;lat;lon;timestamp;P1;durP1;ratioP1;P2;durP2;ratioP2
38238;SDS011;24035;48.900;9.188;2022-07-21T00:01:24;8.68;;;5.80;;
38238;SDS011;24035;48.900;9.188;2022-07-21T00:03:50;7.85;;;5.78;;
38238;SDS011;24035;48.900;9.188;2022-07-21T00:06:15;9.10;;;5.47;;
38238;SDS011;24035;48.900;9.188;2022-07-21T00:08:41;10.93;;;6.25;;
38238;SDS011;24035;48.900;9.188;2022-07-21T00:11:07;8.50;;;6.03;;
38238;SDS011;24035;48.900;9.188;2022-07-21T00:13:32;12.57;;;6.65;;
38238;SDS011;24035;48.900;9.188;2022-07-21T00:15:58;14.38;;;6.10;;
38238;SDS011;24035;48.900;9.188;2022-07-21T00:18:24;10.15;;;6.25;;
38238;SDS011;24035;48.900;9.188;2022-07-21T00:20:53;10.90;;;5.95;;
38238;SDS011;24035;48.900;9.188;2022-07-21T00:23:20;9.43;;;6.72;;
38238;SDS011;24035;48.900;9.188;2022-07-21T00:25:46;10.27;;;7.35;;
38238;SDS011;24035;48.900;9.188;2022-07-21T00:28:12;12.93;;;7.32;;
38238;SDS011;24035;48.900;9.188;2022-07-21T00:30:38;9.52;;;6.68;;
38238;SDS011;24035;48.900;9.188;2022-07-21T00:33:03;10.50;;;6.45;;
38238;SDS011;24035;48.900;9.188;2022-07-21T00:35:29;9.82;;;6.85;;
38238;SDS011;24035;48.900;9.188;2022-07-21T00:37:55;10.32;;;6.70;;
38238;SDS011;24035;48.900;9.188;2022-07-21T00:40:21;11.20;;;7.15;;
38238;SDS011;24035;48.900;9.188;2022-07-21T00:42:46;14.40;;;7.35;;
38238;SDS011;24035;48.900;9.188;2022-07-21T00:45:12;8.90;;;6.90;;
38238;SDS011;24035;48.900;9.188;2022-07-21T00:47:37;9.95;;;6.70;;
38238;SDS011;24035;48.900;9.188;2022-07-21T00:50:05;11.15;;;7.50;;
38238;SDS011;24035;48.900;9.188;2022-07-21T00:52:33;10.68;;;6.82;;
38238;SDS011;24035;48.900;9.188;2022-07-21T00:54:59;9.57;;;6.85;;
38238;SDS011;24035;48.900;9.188;2022-07-21T00:57:27;14.90;;;6.63;;
38238;SDS011;24035;48.900;9.188;2022-07-21T00:59:52;10.38;;;6.38;;
38238;SDS011;24035;48.900;9.188;2022-07-21T01:02:18;9.30;;;6.30;;
38238;SDS011;24035;48.900;9.188;2022-07-21T01:04:44;10.73;;;6.68;;
38238;SDS011;24035;48.900;9.188;2022-07-21T01:07:09;11.05;;;6.38;;
38238;SDS011;24035;48.900;9.188;2022-07-21T01:09:36;10.20;;;6.60;;
38238;SDS011;24035;48.900;9.188;2022-07-21T01:12:02;12.20;;;7.20;;
38238;SDS011;24035;48.900;9.188;2022-07-21T01:14:28;10.40;;;7.13;;
38238;SDS011;24035;48.900;9.188;2022-07-21T01:16:54;10.63;;;7.40;;
38238;SDS011;24035;48.900;9.188;2022-07-21T01:19:20;9.38;;;6.00;;
38238;SDS011;24035;48.900;9.188;2022-07-21T01:21:46;10.13;;;6.53;;
38238;SDS011;24035;48.900;9.188;2022-07-21T01:24:13;9.70;;;6.50;;
38238;SDS011;24035;48.900;9.188;2022-07-21T01:26:43;10.63;;;6.78;;
38238;SDS011;24035;48.900;9.188;2022-07-21T01:29:10;8.68;;;6.15;;
38238;SDS011;24035;48.900;9.188;2022-07-21T01:31:37;10.52;;;5.60;;
38238;SDS011;24035;48.900;9.188;2022-07-21T01:34:05;8.55;;;5.93;;
38238;SDS011;24035;48.900;9.188;2022-07-21T01:36:31;10.43;;;6.68;;
38238;SDS011;24035;48.900;9.188;2022-07-21T01:38:56;11.10;;;6.50;;
38238;SDS011;24035;48.900;9.188;2022-07-21T01:41:41;12.32;;;6.72;;
38238;SDS011;24035;48.900;9.188;2022-07-21T01:44:08;11.90;;;7.00;;
38238;SDS011;24035;48.900;9.188;2022-07-21T01:46:36;13.40;;;6.50;;
38238;SDS011;24035;48.900;9.188;2022-07-21T01:49:03;11.27;;;6.03;;
38238;SDS011;24035;48.900;9.188;2022-07-21T01:51:29;14.63;;;7.90;;
38238;SDS011;24035;48.900;9.188;2022-07-21T01:53:55;14.68;;;6.65;;
38238;SDS011;24035;48.900;9.188;2022-07-21T01:56:22;9.98;;;6.22;;
38238;SDS011;24035;48.900;9.188;2022-07-21T01:58:49;9.60;;;6.38;;
38238;SDS011;24035;48.900;9.188;2022-07-21T02:01:16;11.75;;;6.78;;
38238;SDS011;24035;48.900;9.188;2022-07-21T02:03:43;10.60;;;6.35;;
38238;SDS011;24035;48.900;9.188;2022-07-21T02:06:10;9.27;;;6.25;;
38238;SDS011;24035;48.900;9.188;2022-07-21T02:08:35;13.30;;;6.10;;
38238;SDS011;24035;48.900;9.188;2022-07-21T02:11:01;11.60;;;7.10;;
38238;SDS011;24035;48.900;9.188;2022-07-21T02:13:27;11.85;;;7.05;;
38238;SDS011;24035;48.900;9.188;2022-07-21T02:15:53;8.90;;;6.45;;
38238;SDS011;24035;48.900;9.188;2022-07-21T02:18:19;11.50;;;6.85;;
38238;SDS011;24035;48.900;9.188;2022-07-21T02:20:46;9.43;;;6.68;;
38238;SDS011;24035;48.900;9.188;2022-07-21T02:23:18;11.07;;;6.55;;
38238;SDS011;24035;48.900;9.188;2022-07-21T02:25:44;9.13;;;6.78;;
38238;SDS011;24035;48.900;9.188;2022-07-21T02:28:10;8.82;;;6.63;;
38238;SDS011;24035;48.900;9.188;2022-07-21T02:30:36;13.55;;;6.65;;
38238;SDS011;24035;48.900;9.188;2022-07-21T02:33:02;12.13;;;6.55;;
38238;SDS011;24035;48.900;9.188;2022-07-21T02:35:28;11.77;;;6.10;;
38238;SDS011;24035;48.900;9.188;2022-07-21T02:37:53;11.98;;;6.90;;
38238;SDS011;24035;48.900;9.188;2022-07-21T02:40:19;8.23;;;6.18;;
38238;SDS011;24035;48.900;9.188;2022-07-21T02:42:45;9.10;;;6.78;;
38238;SDS011;24035;48.900;9.188;2022-07-21T02:45:11;9.95;;;7.22;;
38238;SDS011;24035;48.900;9.188;2022-07-21T02:50:26;10.88;;;6.55;;
38238;SDS011;24035;48.900;9.188;2022-07-21T02:52:55;8.70;;;6.30;;
38238;SDS011;24035;48.900;9.188;2022-07-21T02:55:23;9.38;;;6.57;;
38238;SDS011;24035;48.900;9.188;2022-07-21T02:57:49;8.90;;;5.85;;
38238;SDS011;24035;48.900;9.188;2022-07-21T03:00:27;8.85;;;6.40;;
38238;SDS011;24035;48.900;9.188;2022-07-21T03:02:52;9.88;;;6.53;;
38238;SDS011;24035;48.900;9.188;2022-07-21T03:05:18;9.63;;;6.53;;
38238;SDS011;24035;48.900;9.188;2022-07-21T03:07:43;11.52;;;6.38;;
38238;SDS011;24035;48.900;9.188;2022-07-21T03:10:09;11.15;;;7.38;;
38238;SDS011;24035;48.900;9.188;2022-07-21T03:12:35;9.73;;;6.30;;
38238;SDS011;24035;48.900;9.188;2022-07-21T03:15:00;12.98;;;8.10;;
38238;SDS011;24035;48.900;9.188;2022-07-21T03:17:26;13.85;;;7.75;;
38238;SDS011;24035;48.900;9.188;2022-07-21T03:19:51;9.70;;;7.45;;
38238;SDS011;24035;48.900;9.188;2022-07-21T03:22:17;11.63;;;7.03;;
38238;SDS011;24035;48.900;9.188;2022-07-21T03:24:43;12.10;;;7.13;;
38238;SDS011;24035;48.900;9.188;2022-07-21T03:27:08;12.77;;;6.68;;
38238;SDS011;24035;48.900;9.188;2022-07-21T03:29:34;15.00;;;6.95;;
38238;SDS011;24035;48.900;9.188;2022-07-21T03:31:59;11.80;;;7.30;;
38238;SDS011;24035;48.900;9.188;2022-07-21T03:34:25;11.10;;;7.20;;
38238;SDS011;24035;48.900;9.188;2022-07-21T03:36:51;11.98;;;7.00;;
38238;SDS011;24035;48.900;9.188;2022-07-21T03:39:16;11.02;;;7.18;;
38238;SDS011;24035;48.900;9.188;2022-07-21T03:41:42;9.70;;;6.22;;
38238;SDS011;24035;48.900;9.188;2022-07-21T03:44:07;8.05;;;6.25;;
38238;SDS011;24035;48.900;9.188;2022-07-21T03:46:33;12.30;;;6.90;;
38238;SDS011;24035;48.900;9.188;2022-07-21T03:48:59;11.52;;;6.25;;
38238;SDS011;24035;48.900;9.188;2022-07-21T03:51:24;8.82;;;6.25;;
38238;SDS011;24035;48.900;9.188;2022-07-21T03:53:50;13.38;;;6.38;;
38238;SDS011;24035;48.900;9.188;2022-07-21T03:56:16;10.15;;;6.13;;
38238;SDS011;24035;48.900;9.188;2022-07-21T03:58:41;10.25;;;6.65;;
38238;SDS011;24035;48.900;9.188;2022-07-21T04:01:07;9.45;;;6.45;;
38238;SDS011;24035;48.900;9.188;2022-07-21T04:03:33;8.13;;;6.25;;
38238;SDS011;24035;48.900;9.188;2022-07-21T04:06:00;9.45;;;5.97;;
38238;SDS011;24035;48.900;9.188;2022-07-21T04:08:25;10.10;;;6.82;;
38238;SDS011;24035;48.900;9.188;2022-07-21T04:10:52;8.55;;;6.30;;
38238;SDS011;24035;48.900;9.188;2022-07-21T04:13:18;13.20;;;6.22;;
38238;SDS011;24035;48.900;9.188;2022-07-21T04:15:43;8.82;;;5.85;;
38238;SDS011;24035;48.900;9.188;2022-07-21T04:18:09;9.77;;;6.45;;
38238;SDS011;24035;48.900;9.188;2022-07-21T04:20:35;10.05;;;6.18;;
38238;SDS011;24035;48.900;9.188;2022-07-21T04:23:01;10.32;;;6.13;;
38238;SDS011;24035;48.900;9.188;2022-07-21T04:25:28;11.20;;;6.63;;
38238;SDS011;24035;48.900;9.188;2022-07-21T04:27:54;10.48;;;6.38;;
38238;SDS011;24035;48.900;9.188;2022-07-21T04:30:22;8.55;;;5.50;;
38238;SDS011;24035;48.900;9.188;2022-07-21T04:32:51;8.15;;;5.82;;
38238;SDS011;24035;48.900;9.188;2022-07-21T04:35:17;11.45;;;6.18;;
38238;SDS011;24035;48.900;9.188;2022-07-21T04:37:43;8.80;;;5.55;;
38238;SDS011;24035;48.900;9.188;2022-07-21T04:40:10;10.18;;;6.13;;
38238;SDS011;24035;48.900;9.188;2022-07-21T04:42:39;10.93;;;5.47;;
38238;SDS011;24035;48.900;9.188;2022-07-21T04:45:05;11.13;;;6.45;;
38238;SDS011;24035;48.900;9.188;2022-07-21T04:47:32;9.32;;;6.70;;
38238;SDS011;24035;48.900;9.188;2022-07-21T04:49:57;9.63;;;6.07;;
38238;SDS011;24035;48.900;9.188;2022-07-21T04:52:23;10.60;;;6.03;;
38238;SDS011;24035;48.900;9.188;2022-07-21T04:54:49;10.82;;;6.90;;
38238;SDS011;24035;48.900;9.188;2022-07-21T04:57:15;8.77;;;6.50;;
38238;SDS011;24035;48.900;9.188;2022-07-21T04:59:40;8.82;;;5.78;;
38238;SDS011;24035;48.900;9.188;2022-07-21T05:02:06;9.57;;;6.78;;
38238;SDS011;24035;48.900;9.188;2022-07-21T05:04:35;9.93;;;5.82;;
38238;SDS011;24035;48.900;9.188;2022-07-21T05:07:01;8.40;;;6.18;;
38238;SDS011;24035;48.900;9.188;2022-07-21T05:09:28;9.00;;;6.05;;
38238;SDS011;24035;48.900;9.188;2022-07-21T05:11:54;10.93;;;6.15;;
38238;SDS011;24035;48.900;9.188;2022-07-21T05:14:20;14.27;;;6.70;;
38238;SDS011;24035;48.900;9.188;2022-07-21T05:16:45;8.18;;;6.07;;
38238;SDS011;24035;48.900;9.188;2022-07-21T05:19:11;10.65;;;5.32;;
38238;SDS011;24035;48.900;9.188;2022-07-21T05:21:37;9.98;;;6.05;;
38238;SDS011;24035;48.900;9.188;2022-07-21T05:24:03;7.55;;;5.65;;
38238;SDS011;24035;48.900;9.188;2022-07-21T05:26:29;8.63;;;5.57;;
38238;SDS011;24035;48.900;9.188;2022-07-21T05:28:55;10.55;;;5.88;;
38238;SDS011;24035;48.900;9.188;2022-07-21T05:31:20;6.57;;;4.88;;
38238;SDS011;24035;48.900;9.188;2022-07-21T05:33:46;9.80;;;5.80;;
38238;SDS011;24035;48.900;9.188;2022-07-21T05:36:12;8.00;;;5.75;;
38238;SDS011;24035;48.900;9.188;2022-07-21T05:38:38;8.20;;;5.82;;
38238;SDS011;24035;48.900;9.188;2022-07-21T05:41:04;7.10;;;5.70;;
38238;SDS011;24035;48.900;9.188;2022-07-21T05:43:30;7.80;;;5.30;;
38238;SDS011;24035;48.900;9.188;2022-07-21T05:45:56;9.63;;;5.90;;
38238;SDS011;24035;48.900;9.188;2022-07-21T05:48:25;10.95;;;6.70;;
38238;SDS011;24035;48.900;9.188;2022-07-21T05:50:51;8.70;;;5.93;;
38238;SDS011;24035;48.900;9.188;2022-07-21T05:53:18;9.27;;;5.65;;
38238;SDS011;24035;48.900;9.188;2022-07-21T05:55:44;9.63;;;5.72;;
38238;SDS011;24035;48.900;9.188;2022-07-21T05:58:10;9.52;;;6.43;;
38238;SDS011;24035;48.900;9.188;2022-07-21T06:00:37;8.65;;;5.82;;
38238;SDS011;24035;48.900;9.188;2022-07-21T06:03:02;7.30;;;5.90;;
38238;SDS011;24035;48.900;9.188;2022-07-21T06:05:28;7.07;;;5.70;;
38238;SDS011;24035;48.900;9.188;2022-07-21T06:07:54;9.20;;;6.18;;
38238;SDS011;24035;48.900;9.188;2022-07-21T06:10:19;9.77;;;5.70;;
38238;SDS011;24035;48.900;9.188;2022-07-21T06:12:45;10.73;;;6.15;;
38238;SDS011;24035;48.900;9.188;2022-07-21T06:15:11;8.70;;;5.88;;
38238;SDS011;24035;48.900;9.188;2022-07-21T06:17:41;9.00;;;5.53;;
38238;SDS011;24035;48.900;9.188;2022-07-21T06:20:09;9.02;;;5.93;;
38238;SDS011;24035;48.900;9.188;2022-07-21T06:22:35;7.22;;;5.05;;
38238;SDS011;24035;48.900;9.188;2022-07-21T06:25:02;8.40;;;5.78;;
38238;SDS011;24035;48.900;9.188;2022-07-21T06:27:28;8.15;;;5.13;;
38238;SDS011;24035;48.900;9.188;2022-07-21T06:29:54;7.88;;;5.63;;
38238;SDS011;24035;48.900;9.188;2022-07-21T06:32:22;11.82;;;5.38;;
38238;SDS011;24035;48.900;9.188;2022-07-21T06:34:48;8.35;;;4.63;;
38238;SDS011;24035;48.900;9.188;2022-07-21T06:37:13;6.65;;;4.68;;
38238;SDS011;24035;48.900;9.188;2022-07-21T06:39:39;9.60;;;5.10;;
38238;SDS011;24035;48.900;9.188;2022-07-21T06:42:06;6.32;;;4.60;;
38238;SDS011;24035;48.900;9.188;2022-07-21T06:44:33;8.10;;;5.07;;
38238;SDS011;24035;48.900;9.188;2022-07-21T06:46:58;6.68;;;4.43;;
38238;SDS011;24035;48.900;9.188;2022-07-21T06:49:32;7.68;;;4.72;;
38238;SDS011;24035;48.900;9.188;2022-07-21T06:51:58;6.40;;;4.35;;
38238;SDS011;24035;48.900;9.188;2022-07-21T06:54:25;5.90;;;4.38;;
38238;SDS011;24035;48.900;9.188;2022-07-21T06:56:50;5.78;;;4.20;;
38238;SDS011;24035;48.900;9.188;2022-07-21T06:59:16;5.68;;;3.70;;
38238;SDS011;24035;48.900;9.188;2022-07-21T07:01:42;6.45;;;4.50;;
38238;SDS011;24035;48.900;9.188;2022-07-21T07:04:08;9.30;;;4.20;;
38238;SDS011;24035;48.900;9.188;2022-07-21T07:06:34;5.90;;;4.10;;
38238;SDS011;24035;48.900;9.188;2022-07-21T07:08:59;5.35;;;3.53;;
38238;SDS011;24035;48.900;9.188;2022-07-21T07:11:25;6.40;;;3.83;;
38238;SDS011;24035;48.900;9.188;2022-07-21T07:13:51;6.60;;;4.00;;
38238;SDS011;24035;48.900;9.188;2022-07-21T07:16:17;5.85;;;3.75;;
38238;SDS011;24035;48.900;9.188;2022-07-21T07:18:42;8.52;;;4.50;;
38238;SDS011;24035;48.900;9.188;2022-07-21T07:21:08;6.78;;;4.40;;
38238;SDS011;24035;48.900;9.188;2022-07-21T07:23:34;6.88;;;3.92;;
38238;SDS011;24035;48.900;9.188;2022-07-21T07:26:00;7.75;;;4.22;;
38238;SDS011;24035;48.900;9.188;2022-07-21T07:28:25;8.73;;;3.90;;
38238;SDS011;24035;48.900;9.188;2022-07-21T07:30:54;7.07;;;4.70;;
38238;SDS011;24035;48.900;9.188;2022-07-21T07:33:20;5.63;;;3.90;;
38238;SDS011;24035;48.900;9.188;2022-07-21T07:35:46;6.97;;;3.75;;
38238;SDS011;24035;48.900;9.188;2022-07-21T07:38:15;5.22;;;3.90;;
38238;SDS011;24035;48.900;9.188;2022-07-21T07:40:50;7.03;;;3.63;;
38238;SDS011;24035;48.900;9.188;2022-07-21T07:43:16;6.07;;;3.40;;
38238;SDS011;24035;48.900;9.188;2022-07-21T07:49:04;5.47;;;3.58;;
38238;SDS011;24035;48.900;9.188;2022-07-21T07:51:30;6.53;;;4.30;;
38238;SDS011;24035;48.900;9.188;2022-07-21T07:53:55;5.85;;;3.90;;
38238;SDS011;24035;48.900;9.188;2022-07-21T07:56:21;7.00;;;3.75;;
38238;SDS011;24035;48.900;9.188;2022-07-21T07:58:47;7.25;;;4.05;;
38238;SDS011;24035;48.900;9.188;2022-07-21T08:01:12;7.10;;;3.75;;
38238;SDS011;24035;48.900;9.188;2022-07-21T08:03:41;9.13;;;3.83;;
38238;SDS011;24035;48.900;9.188;2022-07-21T08:06:06;7.50;;;3.97;;
38238;SDS011;24035;48.900;9.188;2022-07-21T08:08:33;7.43;;;3.50;;
38238;SDS011;24035;48.900;9.188;2022-07-21T08:10:58;5.45;;;3.22;;
38238;SDS011;24035;48.900;9.188;2022-07-21T08:13:24;4.47;;;3.35;;
38238;SDS011;24035;48.900;9.188;2022-07-21T08:15:50;5.80;;;3.60;;
38238;SDS011;24035;48.900;9.188;2022-07-21T08:18:16;4.95;;;3.10;;
38238;SDS011;24035;48.900;9.188;2022-07-21T08:20:43;6.60;;;3.38;;
38238;SDS011;24035;48.900;9.188;2022-07-21T08:23:09;5.15;;;3.58;;
38238;SDS011;24035;48.900;9.188;2022-07-21T08:25:36;5.38;;;3.08;;
38238;SDS011;24035;48.900;9.188;2022-07-21T08:28:02;5.90;;;3.58;;
38238;SDS011;24035;48.900;9.188;2022-07-21T08:30:28;4.85;;;3.10;;
38238;SDS011;24035;48.900;9.188;2022-07-21T08:32:54;4.32;;;2.83;;
38238;SDS011;24035;48.900;9.188;2022-07-21T08:35:20;5.30;;;3.20;;
38238;SDS011;24035;48.900;9.188;2022-07-21T08:37:56;4.28;;;2.78;;
38238;SDS011;24035;48.900;9.188;2022-07-21T08:40:24;5.80;;;3.00;;
38238;SDS011;24035;48.900;9.188;2022-07-21T08:42:53;5.13;;;2.83;;
38238;SDS011;24035;48.900;9.188;2022-07-21T08:45:20;4.53;;;3.00;;
38238;SDS011;24035;48.900;9.188;2022-07-21T08:47:50;6.22;;;3.05;;
38238;SDS011;24035;48.900;9.188;2022-07-21T08:50:17;5.22;;;2.85;;
38238;SDS011;24035;48.900;9.188;2022-07-21T08:52:43;4.07;;;2.70;;
38238;SDS011;24035;48.900;9.188;2022-07-21T08:55:09;6.13;;;3.03;;
38238;SDS011;24035;48.900;9.188;2022-07-21T08:57:39;6.00;;;2.97;;
38238;SDS011;24035;48.900;9.188;2022-07-21T09:00:06;6.38;;;3.58;;
38238;SDS011;24035;48.900;9.188;2022-07-21T09:02:36;6.70;;;3.20;;
38238;SDS011;24035;48.900;9.188;2022-07-21T09:05:03;5.32;;;3.10;;
38238;SDS011;24035;48.900;9.188;2022-07-21T09:07:49;5.90;;;3.08;;
38238;SDS011;24035;48.900;9.188;2022-07-21T09:10:20;7.82;;;4.00;;
38238;SDS011;24035;48.900;9.188;2022-07-21T09:12:53;6.10;;;3.30;;
38238;SDS011;24035;48.900;9.188;2022-07-21T09:15:25;5.68;;;3.50;;
38238;SDS011;24035;48.900;9.188;2022-07-21T09:18:06;5.85;;;2.90;;
38238;SDS011;24035;48.900;9.188;2022-07-21T09:20:37;6.78;;;2.88;;
38238;SDS011;24035;48.900;9.188;2022-07-21T09:23:06;5.03;;;3.20;;
38238;SDS011;24035;48.900;9.188;2022-07-21T09:25:40;5.43;;;3.45;;
38238;SDS011;24035;48.900;9.188;2022-07-21T09:28:21;4.30;;;2.95;;
38238;SDS011;24035;48.900;9.188;2022-07-21T09:36:05;7.45;;;3.40;;
38238;SDS011;24035;48.900;9.188;2022-07-21T09:38:39;6.10;;;3.58;;
38238;SDS011;24035;48.900;9.188;2022-07-21T09:41:12;5.60;;;3.10;;
38238;SDS011;24035;48.900;9.188;2022-07-21T09:46:16;5.28;;;3.20;;
38238;SDS011;24035;48.900;9.188;2022-07-21T09:48:47;4.32;;;2.67;;
38238;SDS011;24035;48.900;9.188;2022-07-21T09:51:20;4.85;;;2.45;;
38238;SDS011;24035;48.900;9.188;2022-07-21T09:53:51;4.45;;;2.65;;
38238;SDS011;24035;48.900;9.188;2022-07-21T09:56:21;8.80;;;2.75;;
38238;SDS011;24035;48.900;9.188;2022-07-21T09:58:48;4.82;;;2.83;;
38238;SDS011;24035;48.900;9.188;2022-07-21T10:01:16;4.43;;;2.70;;
38238;SDS011;24035;48.900;9.188;2022-07-21T10:03:46;4.55;;;2.85;;
38238;SDS011;24035;48.900;9.188;2022-07-21T10:06:13;4.70;;;2.78;;
38238;SDS011;24035;48.900;9.188;2022-07-21T10:08:41;4.60;;;2.60;;
38238;SDS011;24035;48.900;9.188;2022-07-21T10:11:08;4.32;;;2.80;;
38238;SDS011;24035;48.900;9.188;2022-07-21T10:13:34;5.32;;;2.78;;
38238;SDS011;24035;48.900;9.188;2022-07-21T10:16:01;4.38;;;2.70;;
38238;SDS011;24035;48.900;9.188;2022-07-21T10:18:28;5.38;;;2.58;;
38238;SDS011;24035;48.900;9.188;2022-07-21T10:21:01;4.32;;;2.35;;
38238;SDS011;24035;48.900;9.188;2022-07-21T10:23:42;5.22;;;2.70;;
38238;SDS011;24035;48.900;9.188;2022-07-21T10:26:10;5.85;;;3.05;;
38238;SDS011;24035;48.900;9.188;2022-07-21T10:28:36;4.63;;;2.42;;
38238;SDS011;24035;48.900;9.188;2022-07-21T10:31:16;4.85;;;2.70;;
38238;SDS011;24035;48.900;9.188;2022-07-21T10:33:50;4.35;;;2.60;;
38238;SDS011;24035;48.900;9.188;2022-07-21T10:55:14;3.75;;;1.98;;
38238;SDS011;24035;48.900;9.188;2022-07-21T10:58:11;5.07;;;2.90;;
38238;SDS011;24035;48.900;9.188;2022-07-21T11:03:25;4.20;;;2.60;;
38238;SDS011;24035;48.900;9.188;2022-07-21T11:08:34;4.03;;;2.00;;
38238;SDS011;24035;48.900;9.188;2022-07-21T11:14:15;3.85;;;2.00;;
38238;SDS011;24035;48.900;9.188;2022-07-21T11:24:46;3.97;;;2.17;;
38238;SDS011;24035;48.900;9.188;2022-07-21T11:27:33;3.70;;;2.25;;
38238;SDS011;24035;48.900;9.188;2022-07-21T11:30:03;3.67;;;2.20;;
38238;SDS011;24035;48.900;9.188;2022-07-21T11:32:30;5.75;;;2.40;;
38238;SDS011;24035;48.900;9.188;2022-07-21T11:34:58;4.55;;;2.63;;
38238;SDS011;24035;48.900;9.188;2022-07-21T11:37:30;5.30;;;2.58;;
38238;SDS011;24035;48.900;9.188;2022-07-21T11:39:58;3.97;;;2.05;;
38238;SDS011;24035;48.900;9.188;2022-07-21T11:42:25;3.90;;;2.33;;
38238;SDS011;24035;48.900;9.188;2022-07-21T11:44:52;3.78;;;2.33;;
38238;SDS011;24035;48.900;9.188;2022-07-21T11:47:18;4.07;;;2.42;;
38238;SDS011;24035;48.900;9.188;2022-07-21T11:49:45;4.55;;;2.38;;
38238;SDS011;24035;48.900;9.188;2022-07-21T11:52:15;5.25;;;2.70;;
38238;SDS011;24035;48.900;9.188;2022-07-21T11:54:50;5.57;;;2.40;;
38238;SDS011;24035;48.900;9.188;2022-07-21T11:57:19;4.27;;;2.67;;
38238;SDS011;24035;48.900;9.188;2022-07-21T11:59:46;6.80;;;2.95;;
38238;SDS011;24035;48.900;9.188;2022-07-21T12:02:17;4.47;;;2.75;;
38238;SDS011;24035;48.900;9.188;2022-07-21T12:04:46;4.95;;;2.88;;
38238;SDS011;24035;48.900;9.188;2022-07-21T12:09:57;4.57;;;2.85;;
38238;SDS011;24035;48.900;9.188;2022-07-21T12:12:28;4.85;;;2.92;;
38238;SDS011;24035;48.900;9.188;2022-07-21T12:15:22;6.05;;;2.60;;
38238;SDS011;24035;48.900;9.188;2022-07-21T12:17:54;4.80;;;2.53;;
38238;SDS011;24035;48.900;9.188;2022-07-21T12:20:33;6.78;;;3.00;;
38238;SDS011;24035;48.900;9.188;2022-07-21T12:25:50;7.93;;;3.15;;
38238;SDS011;24035;48.900;9.188;2022-07-21T12:28:17;5.38;;;3.45;;
38238;SDS011;24035;48.900;9.188;2022-07-21T12:30:47;4.03;;;2.70;;
38238;SDS011;24035;48.900;9.188;2022-07-21T12:33:19;4.68;;;3.05;;
38238;SDS011;24035;48.900;9.188;2022-07-21T12:36:02;4.22;;;2.60;;
38238;SDS011;24035;48.900;9.188;2022-07-21T12:38:36;4.78;;;2.60;;
38238;SDS011;24035;48.900;9.188;2022-07-21T12:41:06;5.45;;;2.90;;
38238;SDS011;24035;48.900;9.188;2022-07-21T12:43:33;5.50;;;2.95;;
38238;SDS011;24035;48.900;9.188;2022-07-21T12:46:01;4.97;;;2.97;;
38238;SDS011;24035;48.900;9.188;2022-07-21T12:48:33;4.13;;;2.60;;
38238;SDS011;24035;48.900;9.188;2022-07-21T12:51:14;7.38;;;2.95;;
38238;SDS011;24035;48.900;9.188;2022-07-21T12:53:52;5.10;;;2.95;;
38238;SDS011;24035;48.900;9.188;2022-07-21T12:56:20;5.53;;;2.80;;
38238;SDS011;24035;48.900;9.188;2022-07-21T12:58:53;6.32;;;2.95;;
38238;SDS011;24035;48.900;9.188;2022-07-21T13:01:21;7.03;;;2.85;;
38238;SDS011;24035;48.900;9.188;2022-07-21T13:03:47;5.35;;;3.17;;
38238;SDS011;24035;48.900;9.188;2022-07-21T13:06:14;4.28;;;2.20;;
38238;SDS011;24035;48.900;9.188;2022-07-21T13:08:42;7.10;;;2.97;;
38238;SDS011;24035;48.900;9.188;2022-07-21T13:11:10;4.85;;;2.40;;
38238;SDS011;24035;48.900;9.188;2022-07-21T13:13:38;3.70;;;2.40;;
38238;SDS011;24035;48.900;9.188;2022-07-21T13:16:04;6.57;;;2.50;;
38238;SDS011;24035;48.900;9.188;2022-07-21T13:18:31;5.20;;;2.63;;
38238;SDS011;24035;48.900;9.188;2022-07-21T13:20:57;4.13;;;2.42;;
38238;SDS011;24035;48.900;9.188;2022-07-21T13:23:22;5.75;;;2.28;;
38238;SDS011;24035;48.900;9.188;2022-07-21T13:25:48;3.72;;;1.88;;
38238;SDS011;24035;48.900;9.188;2022-07-21T13:28:14;4.57;;;2.50;;
38238;SDS011;24035;48.900;9.188;2022-07-21T13:30:41;4.78;;;1.98;;
38238;SDS011;24035;48.900;9.188;2022-07-21T13:33:07;3.75;;;2.25;;
38238;SDS011;24035;48.900;9.188;2022-07-21T13:35:33;3.95;;;2.35;;
38238;SDS011;24035;48.900;9.188;2022-07-21T13:37:59;4.30;;;2.40;;
38238;SDS011;24035;48.900;9.188;2022-07-21T13:40:25;4.80;;;2.22;;
38238;SDS011;24035;48.900;9.188;2022-07-21T13:42:52;4.80;;;2.10;;
38238;SDS011;24035;48.900;9.188;2022-07-21T13:45:18;5.75;;;2.10;;
38238;SDS011;24035;48.900;9.188;2022-07-21T13:47:44;5.88;;;2.30;;
38238;SDS011;24035;48.900;9.188;2022-07-21T13:50:10;4.82;;;2.28;;
38238;SDS011;24035;48.900;9.188;2022-07-21T13:52:36;6.22;;;2.33;;
38238;SDS011;24035;48.900;9.188;2022-07-21T13:55:04;5.63;;;2.13;;
38238;SDS011;24035;48.900;9.188;2022-07-21T13:57:30;4.07;;;2.00;;
38238;SDS011;24035;48.900;9.188;2022-07-21T13:59:56;4.50;;;1.70;;
38238;SDS011;24035;48.900;9.188;2022-07-21T14:02:21;4.05;;;2.10;;
38238;SDS011;24035;48.900;9.188;2022-07-21T14:04:47;3.90;;;2.33;;
38238;SDS011;24035;48.900;9.188;2022-07-21T14:07:13;4.40;;;2.15;;
38238;SDS011;24035;48.900;9.188;2022-07-21T14:09:42;4.47;;;2.05;;
38238;SDS011;24035;48.900;9.188;2022-07-21T14:12:08;6.43;;;2.00;;
38238;SDS011;24035;48.900;9.188;2022-07-21T14:14:35;3.85;;;2.20;;
38238;SDS011;24035;48.900;9.188;2022-07-21T14:17:01;3.92;;;2.10;;
38238;SDS011;24035;48.900;9.188;2022-07-21T14:19:27;4.78;;;2.22;;
38238;SDS011;24035;48.900;9.188;2022-07-21T14:21:53;5.22;;;2.30;;
38238;SDS011;24035;48.900;9.188;2022-07-21T14:24:19;3.70;;;1.95;;
38238;SDS011;24035;48.900;9.188;2022-07-21T14:27:03;4.55;;;2.15;;
38238;SDS011;24035;48.900;9.188;2022-07-21T14:29:29;4.85;;;1.95;;
38238;SDS011;24035;48.900;9.188;2022-07-21T14:31:55;3.88;;;2.20;;
38238;SDS011;24035;48.900;9.188;2022-07-21T14:34:20;3.45;;;1.75;;
38238;SDS011;24035;48.900;9.188;2022-07-21T14:36:46;3.22;;;1.83;;
38238;SDS011;24035;48.900;9.188;2022-07-21T14:39:12;5.93;;;2.50;;
38238;SDS011;24035;48.900;9.188;2022-07-21T14:41:39;4.53;;;2.50;;
38238;SDS011;24035;48.900;9.188;2022-07-21T14:44:05;4.28;;;1.92;;
38238;SDS011;24035;48.900;9.188;2022-07-21T14:46:30;4.28;;;1.90;;
38238;SDS011;24035;48.900;9.188;2022-07-21T14:48:56;3.08;;;1.58;;
38238;SDS011;24035;48.900;9.188;2022-07-21T14:51:22;4.05;;;1.95;;
38238;SDS011;24035;48.900;9.188;2022-07-21T14:53:48;4.28;;;1.83;;
38238;SDS011;24035;48.900;9.188;2022-07-21T14:56:14;3.95;;;2.10;;
38238;SDS011;24035;48.900;9.188;2022-07-21T14:58:40;3.40;;;2.00;;
38238;SDS011;24035;48.900;9.188;2022-07-21T15:01:06;3.40;;;1.73;;
38238;SDS011;24035;48.900;9.188;2022-07-21T15:03:31;3.10;;;1.80;;
38238;SDS011;24035;48.900;9.188;2022-07-21T15:05:57;4.25;;;1.65;;
38238;SDS011;24035;48.900;9.188;2022-07-21T15:08:23;4.18;;;2.22;;
38238;SDS011;24035;48.900;9.188;2022-07-21T15:10:49;2.97;;;1.70;;
38238;SDS011;24035;48.900;9.188;2022-07-21T15:13:14;3.67;;;1.77;;
38238;SDS011;24035;48.900;9.188;2022-07-21T15:15:41;3.20;;;1.75;;
38238;SDS011;24035;48.900;9.188;2022-07-21T15:18:09;3.60;;;1.90;;
38238;SDS011;24035;48.900;9.188;2022-07-21T15:20:35;4.05;;;2.00;;
38238;SDS011;24035;48.900;9.188;2022-07-21T15:23:01;3.00;;;1.70;;
38238;SDS011;24035;48.900;9.188;2022-07-21T15:25:27;3.42;;;1.73;;
38238;SDS011;24035;48.900;9.188;2022-07-21T15:27:53;3.70;;;2.05;;
38238;SDS011;24035;48.900;9.188;2022-07-21T15:30:21;3.25;;;1.73;;
38238;SDS011;24035;48.900;9.188;2022-07-21T15:32:46;7.03;;;2.17;;
38238;SDS011;24035;48.900;9.188;2022-07-21T15:35:12;3.60;;;1.77;;
38238;SDS011;24035;48.900;9.188;2022-07-21T15:37:38;3.67;;;1.55;;
38238;SDS011;24035;48.900;9.188;2022-07-21T15:40:04;3.85;;;1.77;;
38238;SDS011;24035;48.900;9.188;2022-07-21T15:42:31;3.70;;;2.20;;